SDM6963 ULLI-LTFM
Flight info
| Callsign | SDM6963 |
|---|---|
| Flight time | N/A |
| Altitude | 35000 |
| Route | SUGIN T873 NIRGI DCT OSKAD DCT UPERI DCT OMEZA DCT ABAGI B105 NIMTA/K0841F360 B105 NATIT/K0841F350 DCT MOLED DCT LIDUS/K0848F340 G242 ZG/K0857F330 DCT ITAKA/K0863F320 DCT OBBUD DCT AMKOL DCT GOTIK DCT MEMZA DCT VENFO DCT BINOL G487 ODIRA/N0465F320 DCT GAKSU UT310 NUGBA |
| Aircraft | A320/M-SDE2E3FGHIRWXY/LB1 |
Departure
| Time | N/A |
|---|---|
| Airport | Pulkovo Airport (ULLI) |
Arrival
| Time | 2026-05-07 18:02 |
|---|---|
| Airport | İstanbul Airport (LTFM) |
| Time | Latitude | Longitude | Altitude | Speed | Heading |
|---|---|---|---|---|---|
| 2026-05-07 16:15 | 43.63568 | 44.08841 | 38155 ft | 460 kts | 272° |
| 2026-05-07 16:16 | 43.63831 | 44.00062 | 38134 ft | 460 kts | 272° |
| 2026-05-07 16:16 | 43.64083 | 43.91242 | 38138 ft | 461 kts | 272° |
| 2026-05-07 16:17 | 43.64332 | 43.82364 | 38141 ft | 462 kts | 272° |
| 2026-05-07 16:17 | 43.64572 | 43.73536 | 38146 ft | 463 kts | 272° |
| 2026-05-07 16:18 | 43.64804 | 43.64706 | 38157 ft | 465 kts | 272° |
| 2026-05-07 16:18 | 43.65032 | 43.55787 | 38156 ft | 465 kts | 272° |
| 2026-05-07 16:19 | 43.65253 | 43.46933 | 38149 ft | 463 kts | 272° |
| 2026-05-07 16:19 | 43.65467 | 43.38114 | 38169 ft | 460 kts | 272° |
| 2026-05-07 16:20 | 43.65671 | 43.29302 | 38193 ft | 459 kts | 272° |
| 2026-05-07 16:20 | 43.65868 | 43.20490 | 38215 ft | 462 kts | 272° |
| 2026-05-07 16:21 | 43.66067 | 43.11580 | 38212 ft | 466 kts | 272° |
| 2026-05-07 16:21 | 43.66256 | 43.02648 | 38195 ft | 467 kts | 272° |
| 2026-05-07 16:22 | 43.66434 | 42.93743 | 38200 ft | 466 kts | 272° |
| 2026-05-07 16:22 | 43.66609 | 42.84849 | 38213 ft | 466 kts | 272° |
| 2026-05-07 16:23 | 43.66778 | 42.75887 | 38207 ft | 467 kts | 272° |
| 2026-05-07 16:23 | 43.66934 | 42.67211 | 38212 ft | 467 kts | 272° |
| 2026-05-07 16:24 | 43.67085 | 42.58290 | 38204 ft | 467 kts | 272° |
| 2026-05-07 16:24 | 43.67232 | 42.49403 | 38200 ft | 466 kts | 272° |
| 2026-05-07 16:25 | 43.67372 | 42.40458 | 38198 ft | 467 kts | 272° |
| 2026-05-07 16:25 | 43.67505 | 42.31530 | 38183 ft | 467 kts | 271° |
| 2026-05-07 16:26 | 43.67632 | 42.22529 | 38179 ft | 467 kts | 271° |
| 2026-05-07 16:26 | 43.67750 | 42.13659 | 38190 ft | 467 kts | 271° |
| 2026-05-07 16:27 | 43.67862 | 42.04703 | 38175 ft | 466 kts | 271° |
| 2026-05-07 16:27 | 43.67966 | 41.95772 | 38188 ft | 465 kts | 271° |
| 2026-05-07 16:28 | 43.68064 | 41.86895 | 38176 ft | 466 kts | 271° |
| 2026-05-07 16:28 | 43.68155 | 41.77950 | 38185 ft | 466 kts | 272° |
| 2026-05-07 16:29 | 43.68240 | 41.69017 | 38200 ft | 467 kts | 271° |
| 2026-05-07 16:29 | 43.68317 | 41.60049 | 38207 ft | 468 kts | 271° |
| 2026-05-07 16:30 | 43.68386 | 41.51095 | 38187 ft | 468 kts | 272° |
| 2026-05-07 16:30 | 43.68449 | 41.42164 | 38193 ft | 468 kts | 272° |
| 2026-05-07 16:31 | 43.68505 | 41.33159 | 38188 ft | 468 kts | 271° |
| 2026-05-07 16:31 | 43.68554 | 41.24195 | 38191 ft | 468 kts | 271° |
| 2026-05-07 16:32 | 43.68602 | 41.13669 | 38193 ft | 468 kts | 271° |
| 2026-05-07 16:32 | 43.68630 | 41.06167 | 38203 ft | 469 kts | 271° |
| 2026-05-07 16:33 | 43.68657 | 40.97236 | 38193 ft | 469 kts | 271° |
| 2026-05-07 16:33 | 43.68676 | 40.88209 | 38169 ft | 469 kts | 271° |
| 2026-05-07 16:34 | 43.68721 | 40.79208 | 38189 ft | 469 kts | 271° |
| 2026-05-07 16:34 | 43.68765 | 40.70214 | 38192 ft | 469 kts | 271° |
| 2026-05-07 16:35 | 43.68796 | 40.61247 | 38193 ft | 468 kts | 271° |
| 2026-05-07 16:35 | 43.68821 | 40.52246 | 38184 ft | 468 kts | 271° |
| 2026-05-07 16:36 | 43.68837 | 40.43308 | 38189 ft | 468 kts | 271° |
| 2026-05-07 16:36 | 43.68844 | 40.34316 | 38189 ft | 468 kts | 271° |
| 2026-05-07 16:37 | 43.68843 | 40.25343 | 38199 ft | 469 kts | 271° |
| 2026-05-07 16:37 | 43.68432 | 40.16360 | 38203 ft | 470 kts | 263° |
| 2026-05-07 16:38 | 43.67138 | 40.07541 | 38210 ft | 471 kts | 255° |
| 2026-05-07 16:38 | 43.64947 | 39.98944 | 38210 ft | 472 kts | 247° |
| 2026-05-07 16:39 | 43.62244 | 39.90672 | 38212 ft | 472 kts | 246° |
| 2026-05-07 16:39 | 43.59537 | 39.82444 | 38210 ft | 471 kts | 246° |
| 2026-05-07 16:40 | 43.56379 | 39.72809 | 38205 ft | 472 kts | 247° |
| 2026-05-07 16:40 | 43.54112 | 39.65927 | 38202 ft | 472 kts | 246° |
| 2026-05-07 16:41 | 43.51391 | 39.57743 | 38202 ft | 472 kts | 246° |
| 2026-05-07 16:41 | 43.48634 | 39.49480 | 38201 ft | 471 kts | 246° |
| 2026-05-07 16:42 | 43.45893 | 39.41294 | 38199 ft | 471 kts | 246° |
| 2026-05-07 16:42 | 43.43132 | 39.33070 | 38206 ft | 470 kts | 246° |
| 2026-05-07 16:43 | 43.40384 | 39.24898 | 38207 ft | 470 kts | 246° |
| 2026-05-07 16:43 | 43.37628 | 39.16732 | 38209 ft | 470 kts | 246° |
| 2026-05-07 16:44 | 43.34880 | 39.08460 | 38206 ft | 471 kts | 248° |
| 2026-05-07 16:44 | 43.32511 | 39.00111 | 38207 ft | 471 kts | 250° |
| 2026-05-07 16:45 | 43.30156 | 38.91683 | 38207 ft | 470 kts | 250° |
| 2026-05-07 16:45 | 43.27799 | 38.83304 | 38211 ft | 470 kts | 250° |
| 2026-05-07 16:46 | 43.25446 | 38.75001 | 38209 ft | 469 kts | 250° |
| 2026-05-07 16:46 | 43.23016 | 38.66557 | 38224 ft | 469 kts | 250° |
| 2026-05-07 16:47 | 43.20563 | 38.58079 | 38193 ft | 470 kts | 250° |
| 2026-05-07 16:47 | 43.18106 | 38.49602 | 38206 ft | 470 kts | 250° |
| 2026-05-07 16:48 | 43.15693 | 38.41311 | 38205 ft | 470 kts | 250° |
| 2026-05-07 16:48 | 43.13269 | 38.33001 | 38201 ft | 469 kts | 249° |
| 2026-05-07 16:49 | 43.10848 | 38.24732 | 38204 ft | 469 kts | 249° |
| 2026-05-07 16:49 | 43.08423 | 38.16476 | 38203 ft | 469 kts | 249° |
| 2026-05-07 16:50 | 43.05631 | 38.06847 | 38193 ft | 468 kts | 250° |
| 2026-05-07 16:50 | 43.03653 | 38.00039 | 38198 ft | 468 kts | 250° |
| 2026-05-07 16:51 | 43.01154 | 37.91530 | 38195 ft | 469 kts | 250° |
| 2026-05-07 16:51 | 42.98718 | 37.83303 | 38191 ft | 469 kts | 250° |
| 2026-05-07 16:52 | 42.96282 | 37.75110 | 38189 ft | 468 kts | 250° |
| 2026-05-07 16:52 | 42.93833 | 37.66922 | 38188 ft | 467 kts | 249° |
| 2026-05-07 16:53 | 42.91337 | 37.58606 | 38190 ft | 468 kts | 249° |
| 2026-05-07 16:53 | 42.88802 | 37.50193 | 38192 ft | 468 kts | 250° |
| 2026-05-07 16:54 | 42.86322 | 37.41990 | 38195 ft | 468 kts | 250° |
| 2026-05-07 16:54 | 42.83859 | 37.33860 | 38195 ft | 468 kts | 249° |
| 2026-05-07 16:55 | 42.81374 | 37.25682 | 38199 ft | 467 kts | 249° |
| 2026-05-07 16:55 | 42.78904 | 37.17583 | 38195 ft | 467 kts | 249° |
| 2026-05-07 16:56 | 42.76413 | 37.09446 | 38189 ft | 468 kts | 249° |
| 2026-05-07 16:56 | 42.72609 | 36.97026 | 38189 ft | 468 kts | 250° |
| 2026-05-07 16:57 | 42.70563 | 36.88732 | 38191 ft | 466 kts | 257° |
| 2026-05-07 16:57 | 42.68911 | 36.78747 | 38190 ft | 464 kts | 261° |
| 2026-05-07 16:58 | 42.67830 | 36.71668 | 38190 ft | 463 kts | 261° |
| 2026-05-07 16:58 | 42.66512 | 36.63113 | 38195 ft | 463 kts | 261° |
| 2026-05-07 16:59 | 42.65181 | 36.54562 | 38191 ft | 463 kts | 261° |
| 2026-05-07 16:59 | 42.63475 | 36.43674 | 38194 ft | 463 kts | 261° |
| 2026-05-07 17:00 | 42.62318 | 36.36331 | 38188 ft | 463 kts | 261° |
| 2026-05-07 17:00 | 42.60973 | 36.27836 | 38193 ft | 463 kts | 260° |
| 2026-05-07 17:01 | 42.59620 | 36.19344 | 38192 ft | 463 kts | 260° |
| 2026-05-07 17:01 | 42.58003 | 36.09247 | 38188 ft | 462 kts | 260° |
| 2026-05-07 17:02 | 42.56870 | 36.02215 | 38191 ft | 461 kts | 260° |
| 2026-05-07 17:02 | 42.55503 | 35.93750 | 38190 ft | 461 kts | 260° |
| 2026-05-07 17:03 | 42.54123 | 35.85258 | 38189 ft | 460 kts | 260° |
| 2026-05-07 17:03 | 42.52750 | 35.76848 | 38192 ft | 461 kts | 260° |
| 2026-05-07 17:04 | 42.51359 | 35.68375 | 38188 ft | 461 kts | 260° |
| 2026-05-07 17:04 | 42.49948 | 35.59819 | 38188 ft | 460 kts | 261° |
| 2026-05-07 17:05 | 42.48546 | 35.51357 | 38178 ft | 459 kts | 261° |
| 2026-05-07 17:05 | 42.47148 | 35.42966 | 38182 ft | 459 kts | 261° |
| 2026-05-07 17:06 | 42.45746 | 35.34584 | 38187 ft | 458 kts | 260° |
| 2026-05-07 17:06 | 42.44310 | 35.26040 | 38180 ft | 458 kts | 260° |
| 2026-05-07 17:07 | 42.42891 | 35.17642 | 38177 ft | 458 kts | 260° |
| 2026-05-07 17:07 | 42.41454 | 35.09183 | 38180 ft | 458 kts | 260° |
| 2026-05-07 17:08 | 42.40027 | 35.00818 | 38171 ft | 458 kts | 260° |
| 2026-05-07 17:08 | 42.38593 | 34.92453 | 38168 ft | 457 kts | 260° |
| 2026-05-07 17:09 | 42.37161 | 34.84132 | 38172 ft | 456 kts | 260° |
| 2026-05-07 17:09 | 42.35478 | 34.74404 | 38169 ft | 456 kts | 260° |
| 2026-05-07 17:10 | 42.34278 | 34.67503 | 38171 ft | 456 kts | 261° |
| 2026-05-07 17:10 | 42.32769 | 34.58863 | 38166 ft | 456 kts | 261° |
| 2026-05-07 17:11 | 42.31293 | 34.50450 | 38154 ft | 455 kts | 261° |
| 2026-05-07 17:11 | 42.29826 | 34.42123 | 38176 ft | 456 kts | 261° |
| 2026-05-07 17:12 | 42.28363 | 34.33854 | 38160 ft | 456 kts | 260° |
| 2026-05-07 17:12 | 42.26873 | 34.25482 | 38165 ft | 456 kts | 260° |
| 2026-05-07 17:13 | 42.25380 | 34.17128 | 38158 ft | 455 kts | 260° |
| 2026-05-07 17:13 | 42.23898 | 34.08875 | 38160 ft | 455 kts | 260° |
| 2026-05-07 17:14 | 42.22408 | 34.00613 | 38161 ft | 454 kts | 260° |
| 2026-05-07 17:14 | 42.20908 | 33.92339 | 38162 ft | 454 kts | 260° |
| 2026-05-07 17:15 | 42.19403 | 33.84070 | 38160 ft | 454 kts | 260° |
| 2026-05-07 17:15 | 42.17987 | 33.75751 | 38153 ft | 453 kts | 262° |
| 2026-05-07 17:16 | 42.16714 | 33.67489 | 38147 ft | 453 kts | 262° |
| 2026-05-07 17:16 | 42.15423 | 33.59224 | 38160 ft | 452 kts | 262° |
| 2026-05-07 17:17 | 42.14117 | 33.50984 | 38144 ft | 451 kts | 262° |
| 2026-05-07 17:17 | 42.12573 | 33.41312 | 38148 ft | 452 kts | 262° |
| 2026-05-07 17:18 | 42.11471 | 33.34449 | 38147 ft | 451 kts | 262° |
| 2026-05-07 17:18 | 42.10133 | 33.26157 | 38145 ft | 451 kts | 262° |
| 2026-05-07 17:19 | 42.08791 | 33.17885 | 38144 ft | 451 kts | 262° |
| 2026-05-07 17:19 | 42.07232 | 33.08328 | 38131 ft | 450 kts | 262° |
| 2026-05-07 17:20 | 42.05984 | 33.01414 | 38134 ft | 451 kts | 260° |
| 2026-05-07 17:20 | 42.04412 | 32.93251 | 38129 ft | 451 kts | 260° |
| 2026-05-07 17:21 | 42.02851 | 32.85130 | 38140 ft | 451 kts | 260° |
| 2026-05-07 17:21 | 42.01035 | 32.75674 | 38141 ft | 450 kts | 260° |
| 2026-05-07 17:22 | 41.99706 | 32.68773 | 38135 ft | 450 kts | 260° |
| 2026-05-07 17:22 | 41.98117 | 32.60545 | 38144 ft | 449 kts | 260° |
| 2026-05-07 17:23 | 41.96555 | 32.52484 | 38141 ft | 449 kts | 260° |
| 2026-05-07 17:23 | 41.94989 | 32.44437 | 38148 ft | 448 kts | 260° |
| 2026-05-07 17:24 | 41.93405 | 32.36335 | 38142 ft | 447 kts | 260° |
| 2026-05-07 17:24 | 41.91826 | 32.28297 | 38150 ft | 448 kts | 259° |
| 2026-05-07 17:25 | 41.90231 | 32.20269 | 38154 ft | 447 kts | 259° |
| 2026-05-07 17:25 | 41.88290 | 32.10769 | 38150 ft | 447 kts | 259° |
| 2026-05-07 17:26 | 41.86901 | 32.04004 | 38151 ft | 447 kts | 259° |
| 2026-05-07 17:26 | 41.85245 | 31.95960 | 38160 ft | 447 kts | 259° |
| 2026-05-07 17:27 | 41.83573 | 31.87865 | 38158 ft | 446 kts | 259° |
| 2026-05-07 17:27 | 41.81608 | 31.78401 | 38051 ft | 446 kts | 259° |
| 2026-05-07 17:28 | 41.81050 | 31.75722 | 37873 ft | 445 kts | 259° |
| 2026-05-07 17:28 | 41.80232 | 31.71796 | 37573 ft | 442 kts | 259° |
| 2026-05-07 17:28 | 41.79401 | 31.67831 | 37266 ft | 439 kts | 259° |
| 2026-05-07 17:28 | 41.78580 | 31.63912 | 36964 ft | 436 kts | 260° |
| 2026-05-07 17:29 | 41.77764 | 31.60031 | 36665 ft | 435 kts | 260° |
| 2026-05-07 17:29 | 41.76946 | 31.56137 | 36376 ft | 435 kts | 260° |
| 2026-05-07 17:29 | 41.76133 | 31.52277 | 36142 ft | 435 kts | 260° |
| 2026-05-07 17:29 | 41.75311 | 31.48381 | 35915 ft | 435 kts | 260° |
| 2026-05-07 17:30 | 41.74199 | 31.43127 | 35610 ft | 436 kts | 260° |
| 2026-05-07 17:30 | 41.73633 | 31.40455 | 35455 ft | 436 kts | 260° |
| 2026-05-07 17:30 | 41.72797 | 31.36520 | 35224 ft | 437 kts | 260° |
| 2026-05-07 17:30 | 41.71966 | 31.32617 | 34996 ft | 437 kts | 260° |
| 2026-05-07 17:31 | 41.71130 | 31.28694 | 34765 ft | 437 kts | 260° |
| 2026-05-07 17:31 | 41.70291 | 31.24765 | 34533 ft | 438 kts | 260° |
| 2026-05-07 17:31 | 41.69433 | 31.20758 | 34273 ft | 438 kts | 260° |
| 2026-05-07 17:31 | 41.68314 | 31.15546 | 33906 ft | 439 kts | 260° |
| 2026-05-07 17:32 | 41.67750 | 31.12907 | 33720 ft | 439 kts | 261° |
| 2026-05-07 17:32 | 41.66990 | 31.09015 | 33448 ft | 438 kts | 262° |
| 2026-05-07 17:32 | 41.66251 | 31.05040 | 33171 ft | 438 kts | 262° |
| 2026-05-07 17:32 | 41.65528 | 31.01134 | 32887 ft | 438 kts | 262° |
| 2026-05-07 17:33 | 41.64788 | 30.97167 | 32394 ft | 439 kts | 262° |
| 2026-05-07 17:33 | 41.64038 | 30.93179 | 31714 ft | 441 kts | 262° |
| 2026-05-07 17:33 | 41.63252 | 30.89029 | 30902 ft | 441 kts | 262° |
| 2026-05-07 17:33 | 41.62505 | 30.85104 | 30082 ft | 442 kts | 262° |
| 2026-05-07 17:34 | 41.61745 | 30.81121 | 29234 ft | 442 kts | 262° |
| 2026-05-07 17:34 | 41.60994 | 30.77188 | 28539 ft | 442 kts | 262° |
| 2026-05-07 17:34 | 41.60224 | 30.73162 | 28352 ft | 448 kts | 262° |
| 2026-05-07 17:34 | 41.59774 | 30.70508 | 28237 ft | 438 kts | 265° |
| 2026-05-07 17:35 | 41.59314 | 30.65284 | 27967 ft | 411 kts | 274° |
| 2026-05-07 17:35 | 41.59314 | 30.61588 | 27770 ft | 395 kts | 278° |
| 2026-05-07 17:35 | 41.59439 | 30.57979 | 27200 ft | 391 kts | 279° |
| 2026-05-07 17:35 | 41.59639 | 30.53127 | 26500 ft | 385 kts | 279° |
| 2026-05-07 17:36 | 41.59736 | 30.50751 | 26169 ft | 382 kts | 278° |
| 2026-05-07 17:36 | 41.59872 | 30.47244 | 25685 ft | 378 kts | 278° |
| 2026-05-07 17:36 | 41.60002 | 30.43782 | 25208 ft | 373 kts | 278° |
| 2026-05-07 17:36 | 41.60126 | 30.40384 | 24744 ft | 369 kts | 278° |
| 2026-05-07 17:37 | 41.60251 | 30.36957 | 24274 ft | 366 kts | 278° |
| 2026-05-07 17:37 | 41.60371 | 30.33581 | 23809 ft | 362 kts | 278° |
| 2026-05-07 17:37 | 41.60683 | 30.30260 | 23317 ft | 353 kts | 290° |
| 2026-05-07 17:37 | 41.62066 | 30.26320 | 22916 ft | 352 kts | 308° |
| 2026-05-07 17:38 | 41.63142 | 30.24598 | 22918 ft | 355 kts | 315° |
| 2026-05-07 17:38 | 41.64860 | 30.22193 | 22498 ft | 356 kts | 316° |
| 2026-05-07 17:38 | 41.66633 | 30.19748 | 21986 ft | 352 kts | 316° |
| 2026-05-07 17:38 | 41.68898 | 30.16624 | 21333 ft | 349 kts | 316° |
| 2026-05-07 17:39 | 41.70000 | 30.15099 | 21017 ft | 347 kts | 316° |
| 2026-05-07 17:39 | 41.71672 | 30.12782 | 20536 ft | 344 kts | 316° |
| 2026-05-07 17:39 | 41.73277 | 30.10411 | 20042 ft | 344 kts | 307° |
| 2026-05-07 17:39 | 41.74285 | 30.07490 | 19552 ft | 349 kts | 287° |
| 2026-05-07 17:40 | 41.74457 | 30.04275 | 19065 ft | 356 kts | 267° |
| 2026-05-07 17:40 | 41.73761 | 30.01082 | 18586 ft | 363 kts | 246° |
| 2026-05-07 17:40 | 41.72289 | 29.98298 | 18127 ft | 367 kts | 233° |
| 2026-05-07 17:40 | 41.70572 | 29.95774 | 17864 ft | 372 kts | 230° |
| 2026-05-07 17:41 | 41.68777 | 29.93279 | 17617 ft | 371 kts | 229° |
| 2026-05-07 17:41 | 41.67000 | 29.90831 | 17375 ft | 370 kts | 229° |
| 2026-05-07 17:41 | 41.65208 | 29.88354 | 17125 ft | 368 kts | 229° |
| 2026-05-07 17:41 | 41.62849 | 29.85077 | 16792 ft | 366 kts | 230° |
| 2026-05-07 17:42 | 41.61672 | 29.83437 | 16629 ft | 365 kts | 230° |
| 2026-05-07 17:42 | 41.59890 | 29.80954 | 16380 ft | 363 kts | 229° |
| 2026-05-07 17:42 | 41.58111 | 29.78473 | 16128 ft | 362 kts | 229° |
| 2026-05-07 17:42 | 41.56350 | 29.76017 | 15875 ft | 360 kts | 229° |
| 2026-05-07 17:43 | 41.54632 | 29.73625 | 15626 ft | 358 kts | 229° |
| 2026-05-07 17:43 | 41.52911 | 29.71229 | 15373 ft | 356 kts | 229° |
| 2026-05-07 17:43 | 41.51180 | 29.68823 | 15130 ft | 355 kts | 229° |
| 2026-05-07 17:43 | 41.48895 | 29.65645 | 14794 ft | 353 kts | 229° |
| 2026-05-07 17:44 | 41.47757 | 29.64066 | 14626 ft | 352 kts | 229° |
| 2026-05-07 17:44 | 41.46061 | 29.61709 | 14369 ft | 350 kts | 229° |
| 2026-05-07 17:44 | 41.43800 | 29.58573 | 14047 ft | 349 kts | 229° |
| 2026-05-07 17:44 | 41.42680 | 29.57020 | 13880 ft | 348 kts | 229° |
| 2026-05-07 17:45 | 41.40995 | 29.54687 | 13621 ft | 346 kts | 229° |
| 2026-05-07 17:45 | 41.38789 | 29.51637 | 13297 ft | 344 kts | 229° |
| 2026-05-07 17:45 | 41.37671 | 29.50092 | 13129 ft | 344 kts | 229° |
| 2026-05-07 17:45 | 41.35972 | 29.47857 | 12875 ft | 343 kts | 224° |
| 2026-05-07 17:46 | 41.34098 | 29.45835 | 12627 ft | 343 kts | 220° |
| 2026-05-07 17:46 | 41.32216 | 29.43909 | 12383 ft | 341 kts | 220° |
| 2026-05-07 17:46 | 41.30333 | 29.41981 | 12138 ft | 340 kts | 220° |
| 2026-05-07 17:46 | 41.28479 | 29.40062 | 11878 ft | 338 kts | 220° |
| 2026-05-07 17:47 | 41.26614 | 29.38116 | 11632 ft | 336 kts | 220° |
| 2026-05-07 17:47 | 41.24757 | 29.36168 | 11380 ft | 335 kts | 220° |
| 2026-05-07 17:47 | 41.22913 | 29.34231 | 11122 ft | 333 kts | 220° |
| 2026-05-07 17:47 | 41.20484 | 29.31674 | 10705 ft | 331 kts | 220° |
| 2026-05-07 17:48 | 41.18673 | 29.29769 | 10367 ft | 325 kts | 220° |
| 2026-05-07 17:48 | 41.17499 | 29.28534 | 10297 ft | 315 kts | 220° |
| 2026-05-07 17:48 | 41.15803 | 29.26755 | 10172 ft | 302 kts | 220° |
| 2026-05-07 17:48 | 41.14183 | 29.25053 | 10052 ft | 291 kts | 220° |
| 2026-05-07 17:49 | 41.12604 | 29.23393 | 9981 ft | 291 kts | 220° |
| 2026-05-07 17:49 | 41.11008 | 29.21713 | 9957 ft | 292 kts | 220° |
| 2026-05-07 17:49 | 41.09419 | 29.20042 | 9960 ft | 292 kts | 220° |
| 2026-05-07 17:49 | 41.07840 | 29.18384 | 9978 ft | 292 kts | 220° |
| 2026-05-07 17:50 | 41.06234 | 29.16701 | 9995 ft | 292 kts | 220° |
| 2026-05-07 17:50 | 41.04647 | 29.15038 | 9995 ft | 292 kts | 220° |
| 2026-05-07 17:50 | 41.02534 | 29.12829 | 9808 ft | 287 kts | 220° |
| 2026-05-07 17:50 | 41.01493 | 29.11739 | 9515 ft | 288 kts | 220° |
| 2026-05-07 17:51 | 40.99408 | 29.09560 | 8995 ft | 287 kts | 220° |
| 2026-05-07 17:51 | 40.98361 | 29.08466 | 8747 ft | 285 kts | 220° |
| 2026-05-07 17:51 | 40.96822 | 29.06860 | 8395 ft | 283 kts | 220° |
| 2026-05-07 17:51 | 40.94763 | 29.04712 | 7921 ft | 281 kts | 220° |
| 2026-05-07 17:52 | 40.93734 | 29.03638 | 7684 ft | 280 kts | 220° |
| 2026-05-07 17:52 | 40.92218 | 29.02044 | 7346 ft | 277 kts | 224° |
| 2026-05-07 17:52 | 40.91110 | 29.00071 | 7051 ft | 267 kts | 253° |
| 2026-05-07 17:52 | 40.90988 | 28.97671 | 6751 ft | 260 kts | 279° |
| 2026-05-07 17:53 | 40.91346 | 28.95369 | 6485 ft | 255 kts | 282° |
| 2026-05-07 17:53 | 40.91698 | 28.93080 | 6220 ft | 251 kts | 281° |
| 2026-05-07 17:53 | 40.91980 | 28.90826 | 5965 ft | 247 kts | 279° |
| 2026-05-07 17:53 | 40.92291 | 28.87835 | 5638 ft | 241 kts | 278° |
| 2026-05-07 17:54 | 40.92426 | 28.86385 | 5487 ft | 238 kts | 277° |
| 2026-05-07 17:54 | 40.92619 | 28.84242 | 5269 ft | 234 kts | 277° |
| 2026-05-07 17:54 | 40.92806 | 28.82119 | 5053 ft | 229 kts | 277° |
| 2026-05-07 17:54 | 40.93111 | 28.80076 | 4801 ft | 225 kts | 296° |
| 2026-05-07 17:55 | 40.94162 | 28.78584 | 4501 ft | 227 kts | 327° |
| 2026-05-07 17:55 | 40.96002 | 28.77236 | 4180 ft | 224 kts | 328° |
| 2026-05-07 17:55 | 40.96903 | 28.76593 | 4117 ft | 222 kts | 335° |
| 2026-05-07 17:55 | 40.98925 | 28.76123 | 4074 ft | 222 kts | 355° |
| 2026-05-07 17:56 | 40.99952 | 28.76106 | 4065 ft | 221 kts | 356° |
| 2026-05-07 17:56 | 41.01481 | 28.76108 | 4063 ft | 221 kts | 357° |
| 2026-05-07 17:56 | 41.03511 | 28.76100 | 4130 ft | 210 kts | 356° |
| 2026-05-07 17:56 | 41.04467 | 28.76090 | 4140 ft | 204 kts | 356° |
| 2026-05-07 17:57 | 41.06285 | 28.76062 | 4097 ft | 190 kts | 355° |
| 2026-05-07 17:57 | 41.07161 | 28.76046 | 4024 ft | 182 kts | 355° |
| 2026-05-07 17:57 | 41.08773 | 28.76015 | 3693 ft | 168 kts | 355° |
| 2026-05-07 17:57 | 41.09917 | 28.75992 | 3454 ft | 158 kts | 355° |
| 2026-05-07 17:58 | 41.10624 | 28.75979 | 3318 ft | 150 kts | 354° |
| 2026-05-07 17:58 | 41.11631 | 28.75960 | 3099 ft | 139 kts | 354° |
| 2026-05-07 17:58 | 41.12598 | 28.75940 | 2918 ft | 139 kts | 354° |
| 2026-05-07 17:58 | 41.13564 | 28.75918 | 2742 ft | 139 kts | 354° |
| 2026-05-07 17:59 | 41.14531 | 28.75899 | 2566 ft | 139 kts | 353° |
| 2026-05-07 17:59 | 41.15498 | 28.75882 | 2396 ft | 138 kts | 354° |
| 2026-05-07 17:59 | 41.16793 | 28.75859 | 2161 ft | 140 kts | 354° |
| 2026-05-07 17:59 | 41.17767 | 28.75840 | 1974 ft | 138 kts | 354° |
| 2026-05-07 18:00 | 41.18395 | 28.75829 | 1849 ft | 137 kts | 354° |
| 2026-05-07 18:00 | 41.19346 | 28.75810 | 1675 ft | 134 kts | 354° |
| 2026-05-07 18:00 | 41.20280 | 28.75791 | 1495 ft | 135 kts | 354° |
| 2026-05-07 18:00 | 41.21529 | 28.75765 | 1265 ft | 133 kts | 356° |
| 2026-05-07 18:01 | 41.22459 | 28.75749 | 1075 ft | 135 kts | 354° |
| 2026-05-07 18:01 | 41.23092 | 28.75725 | 973 ft | 136 kts | 354° |
| 2026-05-07 18:01 | 41.24346 | 28.75708 | 713 ft | 135 kts | 357° |
| 2026-05-07 18:01 | 41.25290 | 28.75698 | 524 ft | 133 kts | 355° |
| 2026-05-07 18:02 | 41.26768 | 28.75662 | 333 ft | 115 kts | 356° |
| 2026-05-07 18:02 | 41.27398 | 28.75638 | 333 ft | 65 kts | 359° |
| 2026-05-07 18:02 | 41.27712 | 28.75641 | 333 ft | 15 kts | 358° |
| 2026-05-07 18:03 | 41.27821 | 28.75636 | 333 ft | 15 kts | 357° |
| 2026-05-07 18:03 | 41.27895 | 28.75628 | 333 ft | 16 kts | 352° |
| 2026-05-07 18:03 | 41.28000 | 28.75588 | 333 ft | 12 kts | 335° |
| 2026-05-07 18:03 | 41.28079 | 28.75524 | 333 ft | 3 kts | 324° |
| 2026-05-07 18:04 | 41.28088 | 28.75515 | 333 ft | 0 kts | 323° |